Guayas — HCEG — position and weather

sailwx.info

Track history (hours):
 
Tides and Currents Weather Stations Pressure Air Temp Water Temp Dewpoint Dewpoint Depression Visibility Wind Speed Wind Dir Waves Ship Positions

Guayas (Ecuador)

Ecuadorian Navy training vessel.

Last reported at 2017-Jun-23 04:57 UTC. Time now 2017-Jun-26 12:01 UTC.
Position N 42°42' W 069°47'.

Length 76 m; draft 4.8 m.

MMSI: 735059037.

Date/timePositionNaut miles runAvg speedWind from/ knotsBaromVisibWave heightAir tempDewpointWater temp
2017-Jun-23 04:57N 42°42' W 069°47'6 4.2
2017-Jun-23 03:32N 42°43' W 069°55'0 4.3
2017-Jun-23 03:30N 42°43' W 069°55'2 4.4
2017-Jun-23 02:59N 42°43' W 069°58'2 4.5
2017-Jun-23 02:30N 42°43' W 070°01'2 4.4
2017-Jun-23 02:00N 42°43' W 070°04'2 4.8
2017-Jun-23 01:30N 42°42' W 070°07'3 4.0
2017-Jun-23 00:44N 42°42' W 070°12'1 4.0
2017-Jun-23 00:30N 42°42' W 070°13'2 4.6
2017-Jun-23 00:00N 42°41' W 070°16'3 5.5
2017-Jun-22 23:30N 42°41' W 070°19'3 5.4
2017-Jun-22 23:00N 42°40' W 070°23'3 5.7
2017-Jun-22 22:30N 42°38' W 070°26'5 9.3
2017-Jun-22 22:00N 42°36' W 070°31'610.3
2017-Jun-22 21:27N 42°32' W 070°37'410.0
2017-Jun-22 21:00N 42°29' W 070°42'510.1
2017-Jun-22 20:31N 42°27' W 070°48'4 8.8
2017-Jun-22 20:01N 42°24' W 070°53'0 0.0
2017-Jun-22 19:30N 42°24' W 070°53'0 0.0
2017-Jun-22 19:00N 42°24' W 070°53'0 0.0
2017-Jun-22 18:30N 42°24' W 070°53'0 0.1
2017-Jun-22 18:00N 42°24' W 070°53'1 1.4
2017-Jun-22 17:30N 42°24' W 070°52'4 8.1
2017-Jun-22 17:00N 42°21' W 070°56'3 6.3
2017-Jun-22 16:30N 42°20' W 071°01'1 2.4
2017-Jun-22 15:54N 42°21' W 071°02'0 0.0
2017-Jun-22 15:27N 42°21' W 071°02'0 0.0
2017-Jun-22 14:57N 42°21' W 071°02'0 0.0
2017-Jun-22 14:03N 42°21' W 071°02'0 0.0
2017-Jun-22 13:27N 42°21' W 071°02'  
2017-Jun-17 17:39N 42°21' W 071°02'0 0.2
2017-Jun-17 17:24N 42°21' W 071°02'1 2.0
2017-Jun-17 17:00N 42°22' W 071°03'1 2.8
2017-Jun-17 16:30N 42°21' W 071°01'2 4.1
2017-Jun-17 16:00N 42°20' W 070°59'3 5.7
2017-Jun-17 15:31N 42°21' W 070°56'3 5.6
2017-Jun-17 15:01N 42°24' W 070°53'1 1.0
2017-Jun-17 14:29N 42°24' W 070°53'0 0.1
2017-Jun-17 13:29N 42°24' W 070°53'0 0.1
2017-Jun-17 12:59N 42°24' W 070°53'0 0.1
2017-Jun-17 12:29N 42°24' W 070°53'0 0.1
2017-Jun-17 11:59N 42°24' W 070°53'0 0.1
2017-Jun-17 11:29N 42°24' W 070°53'0 0.0
2017-Jun-17 10:59N 42°24' W 070°53'0 0.0
2017-Jun-17 10:29N 42°24' W 070°53'0 0.0
2017-Jun-17 09:59N 42°24' W 070°53'0 0.0
2017-Jun-17 09:29N 42°24' W 070°53'0 0.0
2017-Jun-17 08:59N 42°24' W 070°53'0 0.0
2017-Jun-17 08:28N 42°24' W 070°53'0 0.0
2017-Jun-17 07:58N 42°24' W 070°53'0 0.0
2017-Jun-17 07:28N 42°24' W 070°53'0 0.0
2017-Jun-17 06:58N 42°24' W 070°53'0 0.0
2017-Jun-17 06:29N 42°24' W 070°53'0 0.0
2017-Jun-17 05:58N 42°24' W 070°53'0 0.0
2017-Jun-17 05:30N 42°24' W 070°53'0 0.0
2017-Jun-17 04:59N 42°24' W 070°53'0 0.0
2017-Jun-17 04:18N 42°24' W 070°53'0 0.0
2017-Jun-17 04:00N 42°24' W 070°53'0 0.0
2017-Jun-17 03:29N 42°24' W 070°53'0 0.0
2017-Jun-17 02:59N 42°24' W 070°53'0 0.0
2017-Jun-17 02:29N 42°24' W 070°53'0 0.0
2017-Jun-17 01:59N 42°24' W 070°53'0 0.0
2017-Jun-17 01:23N 42°24' W 070°53'0 0.0
2017-Jun-17 00:59N 42°24' W 070°53'0 0.0
2017-Jun-17 00:30N 42°24' W 070°53'0 0.0
2017-Jun-17 00:00N 42°24' W 070°53'0 0.0
2017-Jun-16 23:30N 42°24' W 070°53'0 0.0
2017-Jun-16 23:00N 42°24' W 070°53'0 0.0
2017-Jun-16 22:30N 42°24' W 070°53'0 0.1
2017-Jun-16 22:01N 42°24' W 070°53'0 0.1
2017-Jun-16 21:31N 42°24' W 070°53'0 0.0
2017-Jun-16 21:01N 42°24' W 070°53'0 0.0
2017-Jun-16 20:31N 42°24' W 070°53'0 0.0
2017-Jun-16 20:01N 42°24' W 070°53'0 0.0
2017-Jun-16 19:30N 42°24' W 070°53'0 0.0
2017-Jun-16 19:00N 42°24' W 070°53'0 0.2
2017-Jun-16 18:31N 42°24' W 070°53'0 0.2
2017-Jun-16 18:00N 42°24' W 070°53'0 0.0
2017-Jun-16 17:30N 42°24' W 070°53'0 0.1
2017-Jun-16 17:00N 42°24' W 070°53'0 0.0
2017-Jun-16 16:30N 42°24' W 070°53'0 0.0
2017-Jun-16 16:00N 42°24' W 070°53'0 0.0
2017-Jun-16 15:30N 42°24' W 070°53'0 0.0
2017-Jun-16 15:00N 42°24' W 070°53'0 0.0
2017-Jun-16 14:00N 42°24' W 070°53'0 0.0
2017-Jun-16 13:30N 42°24' W 070°53'0 0.0
2017-Jun-16 13:00N 42°24' W 070°53'0 0.0
2017-Jun-16 12:30N 42°24' W 070°53'0 0.0
2017-Jun-16 12:00N 42°24' W 070°53'0 0.0
2017-Jun-16 11:30N 42°24' W 070°53'0 0.1
2017-Jun-16 11:00N 42°24' W 070°53'3 5.7
2017-Jun-16 10:30N 42°23' W 070°49'4 7.3
2017-Jun-16 10:00N 42°23' W 070°44'4 7.1
2017-Jun-16 09:30N 42°22' W 070°39'3 7.0
2017-Jun-16 09:00N 42°22' W 070°35'4 8.9
2017-Jun-16 08:30N 42°22' W 070°29'4 9.0
2017-Jun-16 08:00N 42°22' W 070°23'5 9.1
2017-Jun-16 07:29N 42°21' W 070°16'  
Track history (hours):
 
Tides and Currents Weather Stations Pressure Air Temp Water Temp Dewpoint Dewpoint Depression Visibility Wind Speed Wind Dir Waves Ship Positions

Guayas (Ecuador)

Ecuadorian Navy training vessel.

Last reported at 2017-Jun-23 04:57 UTC. Time now 2017-Jun-26 12:01 UTC.
Position N 42°42' W 069°47'.

Length 76 m; draft 4.8 m.

MMSI: 735059037.

Date/timePositionNaut miles runAvg speedWind from/ knotsBaromVisibWave heightAir tempDewpointWater temp
2017-Jun-23 04:57N 42°42' W 069°47'6 4.2
2017-Jun-23 03:32N 42°43' W 069°55'0 4.3
2017-Jun-23 03:30N 42°43' W 069°55'2 4.4
2017-Jun-23 02:59N 42°43' W 069°58'2 4.5
2017-Jun-23 02:30N 42°43' W 070°01'2 4.4
2017-Jun-23 02:00N 42°43' W 070°04'2 4.8
2017-Jun-23 01:30N 42°42' W 070°07'3 4.0
2017-Jun-23 00:44N 42°42' W 070°12'1 4.0
2017-Jun-23 00:30N 42°42' W 070°13'2 4.6
2017-Jun-23 00:00N 42°41' W 070°16'3 5.5
2017-Jun-22 23:30N 42°41' W 070°19'3 5.4
2017-Jun-22 23:00N 42°40' W 070°23'3 5.7
2017-Jun-22 22:30N 42°38' W 070°26'5 9.3
2017-Jun-22 22:00N 42°36' W 070°31'610.3
2017-Jun-22 21:27N 42°32' W 070°37'410.0
2017-Jun-22 21:00N 42°29' W 070°42'510.1
2017-Jun-22 20:31N 42°27' W 070°48'4 8.8
2017-Jun-22 20:01N 42°24' W 070°53'0 0.0
2017-Jun-22 19:30N 42°24' W 070°53'0 0.0
2017-Jun-22 19:00N 42°24' W 070°53'0 0.0
2017-Jun-22 18:30N 42°24' W 070°53'0 0.1
2017-Jun-22 18:00N 42°24' W 070°53'1 1.4
2017-Jun-22 17:30N 42°24' W 070°52'4 8.1
2017-Jun-22 17:00N 42°21' W 070°56'3 6.3
2017-Jun-22 16:30N 42°20' W 071°01'1 2.4
2017-Jun-22 15:54N 42°21' W 071°02'0 0.0
2017-Jun-22 15:27N 42°21' W 071°02'0 0.0
2017-Jun-22 14:57N 42°21' W 071°02'0 0.0
2017-Jun-22 14:03N 42°21' W 071°02'0 0.0
2017-Jun-22 13:27N 42°21' W 071°02'  
2017-Jun-17 17:39N 42°21' W 071°02'0 0.2
2017-Jun-17 17:24N 42°21' W 071°02'1 2.0
2017-Jun-17 17:00N 42°22' W 071°03'1 2.8
2017-Jun-17 16:30N 42°21' W 071°01'2 4.1
2017-Jun-17 16:00N 42°20' W 070°59'3 5.7
2017-Jun-17 15:31N 42°21' W 070°56'3 5.6
2017-Jun-17 15:01N 42°24' W 070°53'1 1.0
2017-Jun-17 14:29N 42°24' W 070°53'0 0.1
2017-Jun-17 13:29N 42°24' W 070°53'0 0.1
2017-Jun-17 12:59N 42°24' W 070°53'0 0.1
2017-Jun-17 12:29N 42°24' W 070°53'0 0.1
2017-Jun-17 11:59N 42°24' W 070°53'0 0.1
2017-Jun-17 11:29N 42°24' W 070°53'0 0.0
2017-Jun-17 10:59N 42°24' W 070°53'0 0.0
2017-Jun-17 10:29N 42°24' W 070°53'0 0.0
2017-Jun-17 09:59N 42°24' W 070°53'0 0.0
2017-Jun-17 09:29N 42°24' W 070°53'0 0.0
2017-Jun-17 08:59N 42°24' W 070°53'0 0.0
2017-Jun-17 08:28N 42°24' W 070°53'0 0.0
2017-Jun-17 07:58N 42°24' W 070°53'0 0.0
2017-Jun-17 07:28N 42°24' W 070°53'0 0.0
2017-Jun-17 06:58N 42°24' W 070°53'0 0.0
2017-Jun-17 06:29N 42°24' W 070°53'0 0.0
2017-Jun-17 05:58N 42°24' W 070°53'0 0.0
2017-Jun-17 05:30N 42°24' W 070°53'0 0.0
2017-Jun-17 04:59N 42°24' W 070°53'0 0.0
2017-Jun-17 04:18N 42°24' W 070°53'0 0.0
2017-Jun-17 04:00N 42°24' W 070°53'0 0.0
2017-Jun-17 03:29N 42°24' W 070°53'0 0.0
2017-Jun-17 02:59N 42°24' W 070°53'0 0.0
2017-Jun-17 02:29N 42°24' W 070°53'0 0.0
2017-Jun-17 01:59N 42°24' W 070°53'0 0.0
2017-Jun-17 01:23N 42°24' W 070°53'0 0.0
2017-Jun-17 00:59N 42°24' W 070°53'0 0.0
2017-Jun-17 00:30N 42°24' W 070°53'0 0.0
2017-Jun-17 00:00N 42°24' W 070°53'0 0.0
2017-Jun-16 23:30N 42°24' W 070°53'0 0.0
2017-Jun-16 23:00N 42°24' W 070°53'0 0.0
2017-Jun-16 22:30N 42°24' W 070°53'0 0.1
2017-Jun-16 22:01N 42°24' W 070°53'0 0.1
2017-Jun-16 21:31N 42°24' W 070°53'0 0.0
2017-Jun-16 21:01N 42°24' W 070°53'0 0.0
2017-Jun-16 20:31N 42°24' W 070°53'0 0.0
2017-Jun-16 20:01N 42°24' W 070°53'0 0.0
2017-Jun-16 19:30N 42°24' W 070°53'0 0.0
2017-Jun-16 19:00N 42°24' W 070°53'0 0.2
2017-Jun-16 18:31N 42°24' W 070°53'0 0.2
2017-Jun-16 18:00N 42°24' W 070°53'0 0.0
2017-Jun-16 17:30N 42°24' W 070°53'0 0.1
2017-Jun-16 17:00N 42°24' W 070°53'0 0.0
2017-Jun-16 16:30N 42°24' W 070°53'0 0.0
2017-Jun-16 16:00N 42°24' W 070°53'0 0.0
2017-Jun-16 15:30N 42°24' W 070°53'0 0.0
2017-Jun-16 15:00N 42°24' W 070°53'0 0.0
2017-Jun-16 14:00N 42°24' W 070°53'0 0.0
2017-Jun-16 13:30N 42°24' W 070°53'0 0.0
2017-Jun-16 13:00N 42°24' W 070°53'0 0.0
2017-Jun-16 12:30N 42°24' W 070°53'0 0.0
2017-Jun-16 12:00N 42°24' W 070°53'0 0.0
2017-Jun-16 11:30N 42°24' W 070°53'0 0.1
2017-Jun-16 11:00N 42°24' W 070°53'3 5.7
2017-Jun-16 10:30N 42°23' W 070°49'4 7.3
2017-Jun-16 10:00N 42°23' W 070°44'4 7.1
2017-Jun-16 09:30N 42°22' W 070°39'3 7.0
2017-Jun-16 09:00N 42°22' W 070°35'4 8.9
2017-Jun-16 08:30N 42°22' W 070°29'4 9.0
2017-Jun-16 08:00N 42°22' W 070°23'5 9.1
2017-Jun-16 07:29N 42°21' W 070°16'  

Dump ship's entire track history